sensor_id;sensor_type;location;lat;lon;timestamp;P1;durP1;ratioP1;P2;durP2;ratioP2
19436;SDS011;9854;50.968;4.168;2022-08-19T00:01:45;38.88;;;31.23;;
19436;SDS011;9854;50.968;4.168;2022-08-19T00:04:12;42.25;;;32.42;;
19436;SDS011;9854;50.968;4.168;2022-08-19T00:06:40;39.47;;;30.60;;
19436;SDS011;9854;50.968;4.168;2022-08-19T00:09:08;45.08;;;34.88;;
19436;SDS011;9854;50.968;4.168;2022-08-19T00:11:35;47.80;;;34.72;;
19436;SDS011;9854;50.968;4.168;2022-08-19T00:14:02;50.60;;;35.42;;
19436;SDS011;9854;50.968;4.168;2022-08-19T00:16:30;49.85;;;37.22;;
19436;SDS011;9854;50.968;4.168;2022-08-19T00:18:56;50.78;;;38.90;;
19436;SDS011;9854;50.968;4.168;2022-08-19T00:21:25;54.08;;;40.40;;
19436;SDS011;9854;50.968;4.168;2022-08-19T00:23:54;59.28;;;40.70;;
19436;SDS011;9854;50.968;4.168;2022-08-19T00:26:23;54.15;;;40.78;;
19436;SDS011;9854;50.968;4.168;2022-08-19T00:28:49;52.17;;;39.45;;
19436;SDS011;9854;50.968;4.168;2022-08-19T00:31:15;56.00;;;38.53;;
19436;SDS011;9854;50.968;4.168;2022-08-19T00:33:41;54.78;;;38.53;;
19436;SDS011;9854;50.968;4.168;2022-08-19T00:36:07;57.00;;;40.10;;
19436;SDS011;9854;50.968;4.168;2022-08-19T00:38:38;60.95;;;42.08;;
19436;SDS011;9854;50.968;4.168;2022-08-19T00:41:08;54.05;;;38.28;;
19436;SDS011;9854;50.968;4.168;2022-08-19T00:43:35;65.68;;;40.00;;
19436;SDS011;9854;50.968;4.168;2022-08-19T00:46:00;55.97;;;40.85;;
19436;SDS011;9854;50.968;4.168;2022-08-19T00:48:29;58.85;;;42.75;;
19436;SDS011;9854;50.968;4.168;2022-08-19T00:50:56;55.72;;;40.70;;
19436;SDS011;9854;50.968;4.168;2022-08-19T00:53:23;60.72;;;42.65;;
19436;SDS011;9854;50.968;4.168;2022-08-19T00:55:53;57.63;;;41.65;;
19436;SDS011;9854;50.968;4.168;2022-08-19T00:58:21;57.85;;;42.17;;
19436;SDS011;9854;50.968;4.168;2022-08-19T01:00:49;64.25;;;42.03;;
19436;SDS011;9854;50.968;4.168;2022-08-19T01:03:17;58.97;;;41.42;;
19436;SDS011;9854;50.968;4.168;2022-08-19T01:05:44;61.30;;;42.60;;
19436;SDS011;9854;50.968;4.168;2022-08-19T01:08:12;60.08;;;42.95;;
19436;SDS011;9854;50.968;4.168;2022-08-19T01:10:40;63.83;;;43.20;;
19436;SDS011;9854;50.968;4.168;2022-08-19T01:13:09;68.75;;;44.67;;
19436;SDS011;9854;50.968;4.168;2022-08-19T01:15:40;66.60;;;44.97;;
19436;SDS011;9854;50.968;4.168;2022-08-19T01:18:13;63.75;;;44.30;;
19436;SDS011;9854;50.968;4.168;2022-08-19T01:20:41;64.40;;;43.53;;
19436;SDS011;9854;50.968;4.168;2022-08-19T01:23:08;68.13;;;45.58;;
19436;SDS011;9854;50.968;4.168;2022-08-19T01:25:50;68.25;;;45.20;;
19436;SDS011;9854;50.968;4.168;2022-08-19T01:30:45;62.78;;;42.85;;
19436;SDS011;9854;50.968;4.168;2022-08-19T01:33:11;60.85;;;43.45;;
19436;SDS011;9854;50.968;4.168;2022-08-19T01:35:38;60.30;;;42.05;;
19436;SDS011;9854;50.968;4.168;2022-08-19T01:38:05;61.08;;;42.28;;
19436;SDS011;9854;50.968;4.168;2022-08-19T01:40:34;60.67;;;44.17;;
19436;SDS011;9854;50.968;4.168;2022-08-19T01:43:01;61.35;;;43.28;;
19436;SDS011;9854;50.968;4.168;2022-08-19T01:45:28;63.53;;;40.72;;
19436;SDS011;9854;50.968;4.168;2022-08-19T01:47:56;57.33;;;39.72;;
19436;SDS011;9854;50.968;4.168;2022-08-19T01:50:23;57.10;;;39.80;;
19436;SDS011;9854;50.968;4.168;2022-08-19T01:52:49;56.45;;;39.53;;
19436;SDS011;9854;50.968;4.168;2022-08-19T01:55:16;58.80;;;39.92;;
19436;SDS011;9854;50.968;4.168;2022-08-19T01:57:46;57.67;;;40.42;;
19436;SDS011;9854;50.968;4.168;2022-08-19T02:00:15;55.85;;;39.97;;
19436;SDS011;9854;50.968;4.168;2022-08-19T02:02:42;58.85;;;39.38;;
19436;SDS011;9854;50.968;4.168;2022-08-19T02:05:08;54.42;;;37.28;;
19436;SDS011;9854;50.968;4.168;2022-08-19T02:07:35;52.25;;;36.60;;
19436;SDS011;9854;50.968;4.168;2022-08-19T02:10:03;48.03;;;34.53;;
19436;SDS011;9854;50.968;4.168;2022-08-19T02:12:29;46.80;;;34.03;;
19436;SDS011;9854;50.968;4.168;2022-08-19T02:14:55;48.67;;;34.30;;
19436;SDS011;9854;50.968;4.168;2022-08-19T02:17:21;46.33;;;33.80;;
19436;SDS011;9854;50.968;4.168;2022-08-19T02:19:46;46.38;;;32.38;;
19436;SDS011;9854;50.968;4.168;2022-08-19T02:22:13;44.78;;;32.83;;
19436;SDS011;9854;50.968;4.168;2022-08-19T02:24:39;54.10;;;33.30;;
19436;SDS011;9854;50.968;4.168;2022-08-19T02:27:05;43.45;;;31.35;;
19436;SDS011;9854;50.968;4.168;2022-08-19T02:29:30;43.80;;;31.02;;
19436;SDS011;9854;50.968;4.168;2022-08-19T02:31:56;41.47;;;31.00;;
19436;SDS011;9854;50.968;4.168;2022-08-19T02:34:23;40.03;;;31.42;;
19436;SDS011;9854;50.968;4.168;2022-08-19T02:36:49;43.58;;;30.80;;
19436;SDS011;9854;50.968;4.168;2022-08-19T02:39:15;43.08;;;31.90;;
19436;SDS011;9854;50.968;4.168;2022-08-19T02:41:41;47.13;;;30.77;;
19436;SDS011;9854;50.968;4.168;2022-08-19T02:44:07;41.30;;;31.10;;
19436;SDS011;9854;50.968;4.168;2022-08-19T02:46:32;47.45;;;30.80;;
19436;SDS011;9854;50.968;4.168;2022-08-19T02:49:03;42.55;;;31.75;;
19436;SDS011;9854;50.968;4.168;2022-08-19T02:51:35;45.50;;;31.58;;
19436;SDS011;9854;50.968;4.168;2022-08-19T02:54:02;52.00;;;31.23;;
19436;SDS011;9854;50.968;4.168;2022-08-19T02:56:29;41.80;;;31.65;;
19436;SDS011;9854;50.968;4.168;2022-08-19T02:58:55;46.90;;;30.83;;
19436;SDS011;9854;50.968;4.168;2022-08-19T03:01:23;45.03;;;30.25;;
19436;SDS011;9854;50.968;4.168;2022-08-19T03:03:51;45.35;;;31.10;;
19436;SDS011;9854;50.968;4.168;2022-08-19T03:06:18;38.58;;;29.60;;
19436;SDS011;9854;50.968;4.168;2022-08-19T03:08:45;45.08;;;30.30;;
19436;SDS011;9854;50.968;4.168;2022-08-19T03:11:16;40.30;;;28.73;;
19436;SDS011;9854;50.968;4.168;2022-08-19T03:13:54;45.42;;;30.60;;
19436;SDS011;9854;50.968;4.168;2022-08-19T03:16:20;40.95;;;28.77;;
19436;SDS011;9854;50.968;4.168;2022-08-19T03:18:47;41.72;;;29.55;;
19436;SDS011;9854;50.968;4.168;2022-08-19T03:21:17;39.95;;;27.67;;
19436;SDS011;9854;50.968;4.168;2022-08-19T03:23:45;43.58;;;29.60;;
19436;SDS011;9854;50.968;4.168;2022-08-19T03:26:11;45.40;;;29.20;;
19436;SDS011;9854;50.968;4.168;2022-08-19T03:28:36;42.45;;;28.50;;
19436;SDS011;9854;50.968;4.168;2022-08-19T03:31:04;45.60;;;28.65;;
19436;SDS011;9854;50.968;4.168;2022-08-19T03:33:32;40.80;;;29.73;;
19436;SDS011;9854;50.968;4.168;2022-08-19T03:36:09;50.63;;;28.50;;
19436;SDS011;9854;50.968;4.168;2022-08-19T03:38:41;36.38;;;27.65;;
19436;SDS011;9854;50.968;4.168;2022-08-19T03:41:09;42.33;;;28.20;;
19436;SDS011;9854;50.968;4.168;2022-08-19T03:43:37;38.55;;;26.45;;
19436;SDS011;9854;50.968;4.168;2022-08-19T03:46:05;35.40;;;26.15;;
19436;SDS011;9854;50.968;4.168;2022-08-19T03:48:33;42.80;;;26.90;;
19436;SDS011;9854;50.968;4.168;2022-08-19T03:51:00;42.30;;;26.27;;
19436;SDS011;9854;50.968;4.168;2022-08-19T03:53:26;42.38;;;26.27;;
19436;SDS011;9854;50.968;4.168;2022-08-19T03:55:53;36.85;;;24.75;;
19436;SDS011;9854;50.968;4.168;2022-08-19T03:58:20;35.03;;;24.02;;
19436;SDS011;9854;50.968;4.168;2022-08-19T04:00:46;36.75;;;24.67;;
19436;SDS011;9854;50.968;4.168;2022-08-19T04:03:11;40.00;;;25.65;;
19436;SDS011;9854;50.968;4.168;2022-08-19T04:05:38;43.22;;;23.52;;
19436;SDS011;9854;50.968;4.168;2022-08-19T04:08:04;40.90;;;23.85;;
19436;SDS011;9854;50.968;4.168;2022-08-19T04:10:30;36.38;;;23.80;;
19436;SDS011;9854;50.968;4.168;2022-08-19T04:13:00;36.58;;;24.23;;
19436;SDS011;9854;50.968;4.168;2022-08-19T04:15:25;32.42;;;22.95;;
19436;SDS011;9854;50.968;4.168;2022-08-19T04:17:52;38.65;;;23.55;;
19436;SDS011;9854;50.968;4.168;2022-08-19T04:20:18;32.45;;;22.80;;
19436;SDS011;9854;50.968;4.168;2022-08-19T04:22:43;34.85;;;23.15;;
19436;SDS011;9854;50.968;4.168;2022-08-19T04:25:09;37.00;;;23.88;;
19436;SDS011;9854;50.968;4.168;2022-08-19T04:27:35;38.67;;;24.52;;
19436;SDS011;9854;50.968;4.168;2022-08-19T04:30:01;35.75;;;24.40;;
19436;SDS011;9854;50.968;4.168;2022-08-19T04:32:26;37.95;;;24.80;;
19436;SDS011;9854;50.968;4.168;2022-08-19T04:34:52;39.97;;;24.50;;
19436;SDS011;9854;50.968;4.168;2022-08-19T04:37:18;42.15;;;24.38;;
19436;SDS011;9854;50.968;4.168;2022-08-19T04:39:43;36.35;;;23.75;;
19436;SDS011;9854;50.968;4.168;2022-08-19T04:42:28;35.25;;;23.27;;
19436;SDS011;9854;50.968;4.168;2022-08-19T04:45:06;30.25;;;21.90;;
19436;SDS011;9854;50.968;4.168;2022-08-19T04:47:37;40.65;;;21.95;;
19436;SDS011;9854;50.968;4.168;2022-08-19T04:50:04;35.58;;;21.90;;
19436;SDS011;9854;50.968;4.168;2022-08-19T04:52:31;38.97;;;22.33;;
19436;SDS011;9854;50.968;4.168;2022-08-19T04:54:57;34.35;;;21.58;;
19436;SDS011;9854;50.968;4.168;2022-08-19T04:57:23;35.67;;;21.65;;
19436;SDS011;9854;50.968;4.168;2022-08-19T04:59:53;36.15;;;22.77;;
19436;SDS011;9854;50.968;4.168;2022-08-19T05:02:19;35.35;;;21.08;;
19436;SDS011;9854;50.968;4.168;2022-08-19T05:04:44;32.78;;;21.23;;
19436;SDS011;9854;50.968;4.168;2022-08-19T05:07:10;36.33;;;22.27;;
19436;SDS011;9854;50.968;4.168;2022-08-19T05:09:36;34.08;;;20.45;;
19436;SDS011;9854;50.968;4.168;2022-08-19T05:12:02;37.63;;;21.60;;
19436;SDS011;9854;50.968;4.168;2022-08-19T05:14:28;33.53;;;21.73;;
19436;SDS011;9854;50.968;4.168;2022-08-19T05:16:54;30.10;;;20.17;;
19436;SDS011;9854;50.968;4.168;2022-08-19T05:19:19;30.42;;;19.80;;
19436;SDS011;9854;50.968;4.168;2022-08-19T05:22:04;31.58;;;20.63;;
19436;SDS011;9854;50.968;4.168;2022-08-19T05:24:48;28.33;;;18.77;;
19436;SDS011;9854;50.968;4.168;2022-08-19T05:27:14;31.35;;;18.67;;
19436;SDS011;9854;50.968;4.168;2022-08-19T05:29:39;28.38;;;17.88;;
19436;SDS011;9854;50.968;4.168;2022-08-19T05:32:05;35.30;;;17.85;;
19436;SDS011;9854;50.968;4.168;2022-08-19T05:34:35;24.13;;;17.33;;
19436;SDS011;9854;50.968;4.168;2022-08-19T05:37:03;26.42;;;16.77;;
19436;SDS011;9854;50.968;4.168;2022-08-19T05:39:30;24.35;;;16.38;;
19436;SDS011;9854;50.968;4.168;2022-08-19T05:41:58;26.60;;;17.13;;
19436;SDS011;9854;50.968;4.168;2022-08-19T05:44:26;22.58;;;15.52;;
19436;SDS011;9854;50.968;4.168;2022-08-19T05:46:56;28.27;;;16.15;;
19436;SDS011;9854;50.968;4.168;2022-08-19T05:49:23;23.50;;;15.20;;
19436;SDS011;9854;50.968;4.168;2022-08-19T05:51:50;28.98;;;14.90;;
19436;SDS011;9854;50.968;4.168;2022-08-19T05:54:16;22.50;;;15.13;;
19436;SDS011;9854;50.968;4.168;2022-08-19T05:56:44;25.67;;;15.80;;
19436;SDS011;9854;50.968;4.168;2022-08-19T05:59:12;24.85;;;13.80;;
19436;SDS011;9854;50.968;4.168;2022-08-19T06:01:40;27.38;;;14.27;;
19436;SDS011;9854;50.968;4.168;2022-08-19T06:04:07;24.55;;;13.80;;
19436;SDS011;9854;50.968;4.168;2022-08-19T06:06:33;27.27;;;14.13;;
19436;SDS011;9854;50.968;4.168;2022-08-19T06:09:04;21.27;;;13.88;;
19436;SDS011;9854;50.968;4.168;2022-08-19T06:11:35;24.23;;;14.65;;
19436;SDS011;9854;50.968;4.168;2022-08-19T06:14:10;29.67;;;14.73;;
19436;SDS011;9854;50.968;4.168;2022-08-19T06:16:40;31.63;;;15.02;;
19436;SDS011;9854;50.968;4.168;2022-08-19T06:19:07;22.13;;;14.27;;
19436;SDS011;9854;50.968;4.168;2022-08-19T06:21:37;21.70;;;14.30;;
19436;SDS011;9854;50.968;4.168;2022-08-19T06:24:06;24.77;;;14.77;;
19436;SDS011;9854;50.968;4.168;2022-08-19T06:26:35;26.48;;;14.23;;
19436;SDS011;9854;50.968;4.168;2022-08-19T06:29:03;31.98;;;14.75;;
19436;SDS011;9854;50.968;4.168;2022-08-19T06:31:33;19.70;;;14.20;;
19436;SDS011;9854;50.968;4.168;2022-08-19T06:34:01;32.10;;;13.80;;
19436;SDS011;9854;50.968;4.168;2022-08-19T06:36:38;26.80;;;15.35;;
19436;SDS011;9854;50.968;4.168;2022-08-19T06:39:08;26.05;;;14.15;;
19436;SDS011;9854;50.968;4.168;2022-08-19T06:41:40;29.00;;;14.75;;
19436;SDS011;9854;50.968;4.168;2022-08-19T06:44:08;24.52;;;13.98;;
19436;SDS011;9854;50.968;4.168;2022-08-19T06:46:35;28.27;;;14.30;;
19436;SDS011;9854;50.968;4.168;2022-08-19T06:49:01;32.28;;;14.82;;
19436;SDS011;9854;50.968;4.168;2022-08-19T06:51:27;16.80;;;13.30;;
19436;SDS011;9854;50.968;4.168;2022-08-19T06:53:54;21.88;;;13.32;;
19436;SDS011;9854;50.968;4.168;2022-08-19T06:56:22;22.38;;;13.15;;
19436;SDS011;9854;50.968;4.168;2022-08-19T06:59:03;18.65;;;12.80;;
19436;SDS011;9854;50.968;4.168;2022-08-19T07:01:36;25.40;;;13.25;;
19436;SDS011;9854;50.968;4.168;2022-08-19T07:04:05;23.13;;;12.43;;
19436;SDS011;9854;50.968;4.168;2022-08-19T07:06:33;24.23;;;13.52;;
19436;SDS011;9854;50.968;4.168;2022-08-19T07:09:00;18.98;;;12.38;;
19436;SDS011;9854;50.968;4.168;2022-08-19T07:11:25;21.30;;;12.02;;
19436;SDS011;9854;50.968;4.168;2022-08-19T07:13:51;19.52;;;11.50;;
19436;SDS011;9854;50.968;4.168;2022-08-19T07:16:18;21.95;;;11.73;;
19436;SDS011;9854;50.968;4.168;2022-08-19T07:18:46;22.77;;;12.05;;
19436;SDS011;9854;50.968;4.168;2022-08-19T07:21:15;18.63;;;11.57;;
19436;SDS011;9854;50.968;4.168;2022-08-19T07:23:43;19.33;;;10.43;;
19436;SDS011;9854;50.968;4.168;2022-08-19T07:26:11;15.73;;;9.85;;
19436;SDS011;9854;50.968;4.168;2022-08-19T07:28:40;16.92;;;9.90;;
19436;SDS011;9854;50.968;4.168;2022-08-19T07:31:09;14.02;;;10.02;;
19436;SDS011;9854;50.968;4.168;2022-08-19T07:33:41;15.85;;;9.50;;
19436;SDS011;9854;50.968;4.168;2022-08-19T07:36:08;16.67;;;10.45;;
19436;SDS011;9854;50.968;4.168;2022-08-19T07:38:42;13.25;;;9.38;;
19436;SDS011;9854;50.968;4.168;2022-08-19T07:41:10;13.90;;;10.02;;
19436;SDS011;9854;50.968;4.168;2022-08-19T07:43:38;10.27;;;8.30;;
19436;SDS011;9854;50.968;4.168;2022-08-19T07:46:05;15.50;;;9.00;;
19436;SDS011;9854;50.968;4.168;2022-08-19T07:48:31;20.80;;;9.48;;
19436;SDS011;9854;50.968;4.168;2022-08-19T07:50:58;10.90;;;8.45;;
19436;SDS011;9854;50.968;4.168;2022-08-19T07:53:29;13.55;;;8.07;;
19436;SDS011;9854;50.968;4.168;2022-08-19T07:55:56;13.02;;;8.02;;
19436;SDS011;9854;50.968;4.168;2022-08-19T07:58:26;13.88;;;7.65;;
19436;SDS011;9854;50.968;4.168;2022-08-19T08:00:53;12.95;;;7.93;;
19436;SDS011;9854;50.968;4.168;2022-08-19T08:03:19;16.30;;;7.85;;
19436;SDS011;9854;50.968;4.168;2022-08-19T08:06:06;16.75;;;8.18;;
19436;SDS011;9854;50.968;4.168;2022-08-19T08:08:51;11.82;;;8.30;;
19436;SDS011;9854;50.968;4.168;2022-08-19T08:11:35;13.55;;;8.48;;
19436;SDS011;9854;50.968;4.168;2022-08-19T08:14:01;14.55;;;8.38;;
19436;SDS011;9854;50.968;4.168;2022-08-19T08:16:27;16.92;;;9.60;;
19436;SDS011;9854;50.968;4.168;2022-08-19T08:18:56;12.02;;;8.02;;
19436;SDS011;9854;50.968;4.168;2022-08-19T08:21:22;10.20;;;8.27;;
19436;SDS011;9854;50.968;4.168;2022-08-19T08:23:48;13.13;;;8.40;;
19436;SDS011;9854;50.968;4.168;2022-08-19T08:26:13;11.80;;;8.05;;
19436;SDS011;9854;50.968;4.168;2022-08-19T08:28:39;16.67;;;7.57;;
19436;SDS011;9854;50.968;4.168;2022-08-19T08:31:05;17.33;;;8.10;;
19436;SDS011;9854;50.968;4.168;2022-08-19T08:33:31;11.65;;;8.60;;
19436;SDS011;9854;50.968;4.168;2022-08-19T08:35:57;13.20;;;7.78;;
19436;SDS011;9854;50.968;4.168;2022-08-19T08:38:22;11.90;;;8.07;;
19436;SDS011;9854;50.968;4.168;2022-08-19T08:40:49;14.23;;;8.38;;
19436;SDS011;9854;50.968;4.168;2022-08-19T08:43:30;13.77;;;7.95;;
19436;SDS011;9854;50.968;4.168;2022-08-19T08:46:01;16.30;;;9.15;;
19436;SDS011;9854;50.968;4.168;2022-08-19T08:48:35;18.17;;;8.57;;
19436;SDS011;9854;50.968;4.168;2022-08-19T08:51:10;14.38;;;8.82;;
19436;SDS011;9854;50.968;4.168;2022-08-19T08:53:49;13.45;;;8.48;;
19436;SDS011;9854;50.968;4.168;2022-08-19T08:56:16;20.15;;;9.00;;
19436;SDS011;9854;50.968;4.168;2022-08-19T08:58:47;12.32;;;8.48;;
19436;SDS011;9854;50.968;4.168;2022-08-19T09:01:15;12.65;;;8.77;;
19436;SDS011;9854;50.968;4.168;2022-08-19T09:03:41;12.57;;;7.93;;
19436;SDS011;9854;50.968;4.168;2022-08-19T09:11:39;12.80;;;8.45;;
19436;SDS011;9854;50.968;4.168;2022-08-19T09:14:09;13.95;;;7.85;;
19436;SDS011;9854;50.968;4.168;2022-08-19T09:16:42;16.38;;;8.50;;
19436;SDS011;9854;50.968;4.168;2022-08-19T09:19:08;13.73;;;8.13;;
19436;SDS011;9854;50.968;4.168;2022-08-19T09:21:35;14.75;;;8.13;;
19436;SDS011;9854;50.968;4.168;2022-08-19T09:24:03;13.95;;;8.07;;
19436;SDS011;9854;50.968;4.168;2022-08-19T09:26:30;11.55;;;7.68;;
19436;SDS011;9854;50.968;4.168;2022-08-19T09:28:57;14.43;;;8.45;;
19436;SDS011;9854;50.968;4.168;2022-08-19T09:31:25;21.15;;;8.98;;
19436;SDS011;9854;50.968;4.168;2022-08-19T09:33:52;14.70;;;7.85;;
19436;SDS011;9854;50.968;4.168;2022-08-19T09:36:21;11.35;;;8.05;;
19436;SDS011;9854;50.968;4.168;2022-08-19T09:38:50;14.25;;;7.55;;
19436;SDS011;9854;50.968;4.168;2022-08-19T09:41:17;10.85;;;7.15;;
19436;SDS011;9854;50.968;4.168;2022-08-19T09:43:45;13.65;;;7.63;;
19436;SDS011;9854;50.968;4.168;2022-08-19T09:46:12;12.77;;;9.00;;
19436;SDS011;9854;50.968;4.168;2022-08-19T09:48:39;10.52;;;6.93;;
19436;SDS011;9854;50.968;4.168;2022-08-19T09:51:07;11.25;;;7.28;;
19436;SDS011;9854;50.968;4.168;2022-08-19T09:53:34;14.60;;;7.38;;
19436;SDS011;9854;50.968;4.168;2022-08-19T09:56:01;11.32;;;7.13;;
19436;SDS011;9854;50.968;4.168;2022-08-19T09:58:27;12.05;;;6.70;;
19436;SDS011;9854;50.968;4.168;2022-08-19T10:00:55;7.88;;;7.03;;
19436;SDS011;9854;50.968;4.168;2022-08-19T10:03:21;11.65;;;7.82;;
19436;SDS011;9854;50.968;4.168;2022-08-19T10:05:48;11.30;;;7.40;;
19436;SDS011;9854;50.968;4.168;2022-08-19T10:08:13;10.20;;;6.78;;
19436;SDS011;9854;50.968;4.168;2022-08-19T10:11:00;7.97;;;6.50;;
19436;SDS011;9854;50.968;4.168;2022-08-19T10:13:27;10.98;;;6.75;;
19436;SDS011;9854;50.968;4.168;2022-08-19T10:15:55;11.57;;;6.57;;
19436;SDS011;9854;50.968;4.168;2022-08-19T10:18:22;11.93;;;7.10;;
19436;SDS011;9854;50.968;4.168;2022-08-19T10:20:49;10.25;;;6.30;;
19436;SDS011;9854;50.968;4.168;2022-08-19T10:23:17;12.40;;;6.32;;
19436;SDS011;9854;50.968;4.168;2022-08-19T10:25:45;9.65;;;5.90;;
19436;SDS011;9854;50.968;4.168;2022-08-19T10:28:11;13.20;;;6.38;;
19436;SDS011;9854;50.968;4.168;2022-08-19T10:30:37;10.05;;;6.25;;
19436;SDS011;9854;50.968;4.168;2022-08-19T10:33:07;6.93;;;5.85;;
19436;SDS011;9854;50.968;4.168;2022-08-19T10:35:33;6.65;;;5.10;;
19436;SDS011;9854;50.968;4.168;2022-08-19T10:38:00;7.68;;;5.28;;
19436;SDS011;9854;50.968;4.168;2022-08-19T10:40:28;6.38;;;5.13;;
19436;SDS011;9854;50.968;4.168;2022-08-19T10:42:54;6.53;;;5.50;;
19436;SDS011;9854;50.968;4.168;2022-08-19T10:45:23;6.38;;;5.28;;
19436;SDS011;9854;50.968;4.168;2022-08-19T10:47:50;7.10;;;5.75;;
19436;SDS011;9854;50.968;4.168;2022-08-19T10:50:19;8.07;;;4.45;;
19436;SDS011;9854;50.968;4.168;2022-08-19T10:53:04;7.00;;;4.55;;
19436;SDS011;9854;50.968;4.168;2022-08-19T10:55:33;7.85;;;4.35;;
19436;SDS011;9854;50.968;4.168;2022-08-19T10:58:18;5.38;;;4.40;;
19436;SDS011;9854;50.968;4.168;2022-08-19T11:00:51;5.53;;;4.25;;
19436;SDS011;9854;50.968;4.168;2022-08-19T11:03:21;12.15;;;4.78;;
19436;SDS011;9854;50.968;4.168;2022-08-19T11:05:56;4.28;;;3.88;;
19436;SDS011;9854;50.968;4.168;2022-08-19T11:08:26;7.22;;;5.25;;
19436;SDS011;9854;50.968;4.168;2022-08-19T11:10:53;5.82;;;4.43;;
19436;SDS011;9854;50.968;4.168;2022-08-19T11:13:24;7.20;;;4.47;;
19436;SDS011;9854;50.968;4.168;2022-08-19T11:15:57;7.32;;;4.22;;
19436;SDS011;9854;50.968;4.168;2022-08-19T11:18:24;4.65;;;3.88;;
19436;SDS011;9854;50.968;4.168;2022-08-19T11:20:49;5.78;;;3.70;;
19436;SDS011;9854;50.968;4.168;2022-08-19T11:23:15;8.02;;;4.47;;
19436;SDS011;9854;50.968;4.168;2022-08-19T11:25:40;4.35;;;3.95;;
19436;SDS011;9854;50.968;4.168;2022-08-19T11:28:06;5.85;;;4.35;;
19436;SDS011;9854;50.968;4.168;2022-08-19T11:30:32;7.68;;;3.63;;
19436;SDS011;9854;50.968;4.168;2022-08-19T11:32:58;5.00;;;3.50;;
19436;SDS011;9854;50.968;4.168;2022-08-19T11:35:26;5.80;;;3.78;;
19436;SDS011;9854;50.968;4.168;2022-08-19T11:37:51;4.82;;;3.70;;
19436;SDS011;9854;50.968;4.168;2022-08-19T11:40:17;6.40;;;4.00;;
19436;SDS011;9854;50.968;4.168;2022-08-19T11:42:43;6.80;;;4.40;;
19436;SDS011;9854;50.968;4.168;2022-08-19T11:45:21;4.05;;;3.65;;
19436;SDS011;9854;50.968;4.168;2022-08-19T11:47:48;6.30;;;4.43;;
19436;SDS011;9854;50.968;4.168;2022-08-19T11:50:14;7.28;;;4.50;;
19436;SDS011;9854;50.968;4.168;2022-08-19T11:52:40;7.85;;;4.55;;
19436;SDS011;9854;50.968;4.168;2022-08-19T11:55:06;7.55;;;4.47;;
19436;SDS011;9854;50.968;4.168;2022-08-19T11:57:32;5.25;;;4.72;;
19436;SDS011;9854;50.968;4.168;2022-08-19T11:59:58;5.00;;;4.47;;
19436;SDS011;9854;50.968;4.168;2022-08-19T12:02:23;8.85;;;5.90;;
19436;SDS011;9854;50.968;4.168;2022-08-19T12:04:50;7.78;;;6.20;;
19436;SDS011;9854;50.968;4.168;2022-08-19T12:07:16;10.23;;;6.00;;
19436;SDS011;9854;50.968;4.168;2022-08-19T12:09:41;24.50;;;7.05;;
19436;SDS011;9854;50.968;4.168;2022-08-19T12:12:07;6.60;;;5.45;;
19436;SDS011;9854;50.968;4.168;2022-08-19T12:14:34;8.43;;;5.82;;
19436;SDS011;9854;50.968;4.168;2022-08-19T12:17:00;8.38;;;6.65;;
19436;SDS011;9854;50.968;4.168;2022-08-19T12:19:27;5.82;;;5.32;;
19436;SDS011;9854;50.968;4.168;2022-08-19T12:21:53;6.68;;;5.68;;
19436;SDS011;9854;50.968;4.168;2022-08-19T12:24:25;8.30;;;6.00;;
19436;SDS011;9854;50.968;4.168;2022-08-19T12:26:51;6.03;;;4.90;;
19436;SDS011;9854;50.968;4.168;2022-08-19T12:29:18;7.03;;;4.72;;
19436;SDS011;9854;50.968;4.168;2022-08-19T12:31:43;6.32;;;5.07;;
19436;SDS011;9854;50.968;4.168;2022-08-19T12:34:09;8.15;;;4.93;;
19436;SDS011;9854;50.968;4.168;2022-08-19T12:36:35;5.45;;;4.70;;
19436;SDS011;9854;50.968;4.168;2022-08-19T12:39:00;5.25;;;4.82;;
19436;SDS011;9854;50.968;4.168;2022-08-19T12:41:26;5.65;;;3.78;;
19436;SDS011;9854;50.968;4.168;2022-08-19T12:43:52;5.85;;;4.05;;
19436;SDS011;9854;50.968;4.168;2022-08-19T12:46:18;6.10;;;3.88;;
19436;SDS011;9854;50.968;4.168;2022-08-19T12:48:44;5.10;;;2.85;;
19436;SDS011;9854;50.968;4.168;2022-08-19T12:51:14;6.32;;;3.25;;
19436;SDS011;9854;50.968;4.168;2022-08-19T12:53:43;6.20;;;3.40;;
19436;SDS011;9854;50.968;4.168;2022-08-19T12:56:09;3.10;;;2.80;;
19436;SDS011;9854;50.968;4.168;2022-08-19T12:58:36;6.93;;;3.33;;
19436;SDS011;9854;50.968;4.168;2022-08-19T13:01:12;3.58;;;3.00;;
19436;SDS011;9854;50.968;4.168;2022-08-19T13:03:39;4.35;;;3.67;;
19436;SDS011;9854;50.968;4.168;2022-08-19T13:06:05;4.20;;;2.90;;
19436;SDS011;9854;50.968;4.168;2022-08-19T13:08:31;4.28;;;3.67;;
19436;SDS011;9854;50.968;4.168;2022-08-19T13:10:57;5.40;;;3.22;;
19436;SDS011;9854;50.968;4.168;2022-08-19T13:13:30;3.10;;;2.83;;
19436;SDS011;9854;50.968;4.168;2022-08-19T13:15:59;4.20;;;2.75;;
19436;SDS011;9854;50.968;4.168;2022-08-19T13:18:27;3.95;;;2.60;;
19436;SDS011;9854;50.968;4.168;2022-08-19T13:20:53;2.90;;;2.60;;
19436;SDS011;9854;50.968;4.168;2022-08-19T13:23:19;3.58;;;2.80;;
19436;SDS011;9854;50.968;4.168;2022-08-19T13:25:45;8.05;;;2.80;;
19436;SDS011;9854;50.968;4.168;2022-08-19T13:28:20;8.57;;;2.70;;
19436;SDS011;9854;50.968;4.168;2022-08-19T13:30:46;9.13;;;2.22;;
19436;SDS011;9854;50.968;4.168;2022-08-19T13:33:31;3.65;;;2.40;;
19436;SDS011;9854;50.968;4.168;2022-08-19T13:35:58;4.35;;;2.50;;
19436;SDS011;9854;50.968;4.168;2022-08-19T13:38:25;2.80;;;1.95;;
19436;SDS011;9854;50.968;4.168;2022-08-19T13:40:52;3.53;;;2.20;;
19436;SDS011;9854;50.968;4.168;2022-08-19T13:43:20;2.70;;;1.30;;
19436;SDS011;9854;50.968;4.168;2022-08-19T13:45:48;3.65;;;1.02;;
19436;SDS011;9854;50.968;4.168;2022-08-19T13:48:15;4.88;;;1.00;;
19436;SDS011;9854;50.968;4.168;2022-08-19T13:50:42;1.10;;;0.95;;
19436;SDS011;9854;50.968;4.168;2022-08-19T13:53:09;3.50;;;1.25;;
19436;SDS011;9854;50.968;4.168;2022-08-19T13:55:37;6.18;;;1.40;;
19436;SDS011;9854;50.968;4.168;2022-08-19T13:58:03;4.97;;;1.50;;
19436;SDS011;9854;50.968;4.168;2022-08-19T14:00:31;3.47;;;2.63;;
19436;SDS011;9854;50.968;4.168;2022-08-19T14:02:59;3.47;;;2.42;;
19436;SDS011;9854;50.968;4.168;2022-08-19T14:05:25;6.20;;;2.40;;
19436;SDS011;9854;50.968;4.168;2022-08-19T14:07:53;2.10;;;1.90;;
19436;SDS011;9854;50.968;4.168;2022-08-19T14:10:20;2.55;;;2.35;;
19436;SDS011;9854;50.968;4.168;2022-08-19T14:12:46;3.33;;;2.53;;
19436;SDS011;9854;50.968;4.168;2022-08-19T14:15:13;2.60;;;2.40;;
19436;SDS011;9854;50.968;4.168;2022-08-19T14:17:40;5.40;;;2.37;;
19436;SDS011;9854;50.968;4.168;2022-08-19T14:20:11;1.67;;;1.33;;
19436;SDS011;9854;50.968;4.168;2022-08-19T14:22:39;3.08;;;1.73;;
19436;SDS011;9854;50.968;4.168;2022-08-19T14:25:07;2.75;;;1.88;;
19436;SDS011;9854;50.968;4.168;2022-08-19T14:27:35;4.18;;;1.95;;
19436;SDS011;9854;50.968;4.168;2022-08-19T14:30:06;2.85;;;2.40;;
19436;SDS011;9854;50.968;4.168;2022-08-19T14:32:34;4.43;;;2.40;;
19436;SDS011;9854;50.968;4.168;2022-08-19T14:35:00;5.57;;;2.10;;
19436;SDS011;9854;50.968;4.168;2022-08-19T14:37:26;6.65;;;2.15;;
19436;SDS011;9854;50.968;4.168;2022-08-19T14:39:52;3.80;;;1.70;;
19436;SDS011;9854;50.968;4.168;2022-08-19T14:42:18;3.67;;;1.48;;
19436;SDS011;9854;50.968;4.168;2022-08-19T14:44:44;4.25;;;1.48;;
19436;SDS011;9854;50.968;4.168;2022-08-19T14:47:09;5.53;;;1.65;;
19436;SDS011;9854;50.968;4.168;2022-08-19T14:49:35;3.25;;;1.67;;
19436;SDS011;9854;50.968;4.168;2022-08-19T14:52:01;4.18;;;1.50;;
19436;SDS011;9854;50.968;4.168;2022-08-19T14:54:28;3.33;;;1.20;;
19436;SDS011;9854;50.968;4.168;2022-08-19T14:56:54;2.15;;;1.20;;
19436;SDS011;9854;50.968;4.168;2022-08-19T14:59:20;3.22;;;1.40;;